Extreme weather reports worldwide

High winds

Station
 
Location
 
Name
 
Wind
Knots
Gust
Knots
Vis
SM
Temp/Dew
C
Baro
inHg
METAR
 
CWRH 47 61 / 29.33 CWRH 290500Z AUTO 33047G61KT ////SM ////// ///// A2933
ENOA NO Oseberg A Platform 37 6.21 8/5 30.03 ENOA 290520Z 15037KT 9999 BKN015 08/05 Q1017 W///S5
CWZN 34 39 3/0 CWZN 290500Z AUTO 32034G39KT 03/M00 RMK AO1 PK WND 32039/0459 SLP910 T00321001 51067
CWEF 33 39 2/-1 CWEF 290500Z AUTO 31033G39KT 02/M01 RMK AO1 PK WND 31039/0458 SLP994 T00211010 51040
CWOB 33 44 -13/-14 29.34 CWOB 290500Z AUTO 03033G44KT ////SM ////// M13/M14 A2934

Station
 
Location
 
Name
 
Wind
Knots
Gust
Knots
Vis
SM
Temp/Dew
C
Baro
inHg
METAR
 
FBU ENFB Oslo, NO Oslo, Fornebu Airport 31 8/7 30.03 ENFB 290520Z AUTO 15031KT 6000NDV -RA SCT009/// BKN033/// 08/07 Q1017 W///S5
CWHO 30 -7/-13 CWHO 290500Z AUTO 00030KT M08/M13 RMK AO1 1009 SLP005 T10761132 50022
CWNE 30 0/-4 CWNE 290500Z AUTO 31030KT 00/M04 RMK AO1 3PAST HR 3041 PK WND 29036/0444 SLP090 P0001 T00001044 50006
ENJS 30 6.21 8/7 30.03 ENJS 290520Z 14030KT 9999 BKN011 08/07 Q1017 W09/S/
ENQA NO Troll A Platform 30 7/4 30.09 ENQA 290520Z AUTO 15030KT 9999NDV -RA OVC016/// 07/04 Q1019 W15/S4
ENQC NO Troll C Platform 30 8/5 30.06 ENQC 290520Z AUTO 14030KT 9999NDV OVC017/// 08/05 Q1018 W///S4
ENQR 30 8/6 30.03 ENQR 290520Z AUTO 15030KT 9999NDV -SHRA OVC013/// 08/06 Q1017 W11/S5
ENSE 30 9/6 30.03 ENSE 290520Z AUTO 17030KT 9999NDV OVC015/// 09/06 Q1017 W///S/
MHV KMHV Mojave, US Mojave Airport 30 37 10 8/-2 29.80 KMHV 290520Z AUTO 28030G37KT 10SM SCT023 SCT028 08/M02 A2980 RMK A01
CWME 29 38 -1/-10 CWME 290500Z AUTO 05029G38KT M02/M10 RMK AO1 PK WND 06042/0411 SLP167 T10161102 56007
ENGC 29 6.21 8/6 30.03 ENGC 290520Z 17029KT 9999 BKN012 08/06 Q1017 W09/S5
CWZQ 28 2/0 CWZQ 290500Z AUTO 31028KT 03/M01 RMK AO1 PK WND 31035/0424 SLP050 T00271009 51038
MTJ KMTJ Montrose, US Montrose Regional Airport 27 40 10 5/-6 29.54 KMTJ 290453Z AUTO 25027G40KT 10SM BKN060 06/M06 A2954 RMK AO2 PK WND 24040/0441 SLP983 T00561061
CWEH 27 34 -14/-17 CWEH 290500Z AUTO 31027G34KT M15/M18 RMK AO1 PK WND 30034/0443 SLP134 T11481178 53004
CWKP 27 34 -25/-27 30.42 CWKP 290500Z AUTO 22027G34KT ////SM OVC002 M25/M27 A3042
PKX ZBAD Beijing, CN Beijing Daxing International Airport 27 6.21 -5/-27 30.62 ZBAD 290500Z 34014MPS CAVOK M05/M27 Q1037 NOSIG
DAG KDAG Daggett, US Barstow Daggett Airport 26 39 10 12/1 29.74 KDAG 290450Z AUTO 26026G39KT 10SM CLR 13/02 A2974 RMK AO2 PK WND 27041/0416 SLP059 T01280017
KMWN 26 31 80 -9/-17 KMWN 290454Z 33026G31KT 80SM BKN/// FEW010 FEW160 SCT220 M09/M17 RMK TPS LWR BKN035 400041120
CWBK 26 3/0 CWBK 290500Z AUTO 32026KT 03/01 RMK AO1 3039 PK WND 32030/0451 SLP084 T00300005 50003
CWEP 26 32 2/-2 CWEP 290500Z AUTO 32026G32KT 02/M02 RMK AO1 1037 PK WND 32033/0439 SLP066 T00221024 50002
CWXI 26 -1/-1 CWXI 290500Z AUTO 36026KT M01/M02 RMK AO1 PK WND 00030/0444 SLP937 T10141015 53024
USH SAWH Ushuahia, AR Malvinas Argentinas Airport 26 36 6.21 4/2 29.17 SAWH 290500Z 24026G36KT 9999 VCSH FEW035 SCT042 04/02 Q0988 RMK PP000
KCPW 26 41 1 -11/-13 29.63 KCPW 290515Z AUTO 22026G41KT 200V260 1SM SN OVC008 M11/M13 A2963 RMK AO2
RTN KRTN Raton, US Raton Municipal-Crews Field 25 37 10 7/-12 29.54 KRTN 290453Z AUTO 25025G37KT 10SM CLR 07/M13 A2954 RMK AO2 PK WND 26037/0453 SLP958 T00721128 $
CWGR 25 36 0/-2 CWGR 290500Z AUTO 30025G36KT M00/M03 RMK AO1 3041 PK WND 29036/0457 SLP053 T10011027 50004
CWSA 25 31 9 6/2 29.68 CWSA 290500Z AUTO 32025G31KT 9SM BKN026 06/02 A2968 RMK SLP052
TEE DABS Tébessi, DZ Cheikh Larbi Tébessi Airport 25 6.21 8/4 29.82 DABS 290500Z 30025KT 9999 BKN033 08/04 Q1010
WKJ RJCW Wakkanai, JP Wakkanai Airport 25 36 6.21 12/10 29.44 RJCW 290500Z 23025G36KT 9999 -SHRA FEW008 SCT012 BKN025 12/10 Q0997
RGA SAWE Rio Grande, AR Hermes Quijada International Airport 25 6.21 4/-1 29.23 SAWE 290500Z 28025KT CAVOK 04/M01 Q0990 RMK PP000
TAO ZSQD Qingdao, CN Liuting Airport 25 6.21 3/-4 30.35 ZSQD 290500Z 33013MPS 9999 SCT043 03/M04 Q1028 NOSIG
BWM KBWW Bowman, US Bowman Regional Airport 25 34 10 -10/-14 29.71 KBWW 290515Z AUTO 30025G34KT 10SM CLR M10/M14 A2971 RMK AO2
OGA KOGA Ogallala, US Searle Field 25 30 10 -1/-4 29.61 KOGA 290515Z AUTO 03025G30KT 10SM BKN017 BKN032 OVC055 M01/M04 A2961 RMK AO2 T10131045
RUI KSRR Ruidoso, US Sierra Blanca Regional Airport 25 34 10 7/-10 29.78 KSRR 290515Z AUTO 23025G34KT 10SM 07/M10 A2978 RMK AO2
KMYP 24 31 1.5 -10/-11 29.65 KMYP 290416Z AUTO 25024G31KT 1 1/2SM -SN OVC006 M10/M11 A2965 RMK AO2
KNSI San Nicolas Island, US San Nicolas Island Nolf Airport 24 33 12/10 29.91 KNSI 290453Z AUTO 32024G33KT OVC014 13/10 A2991 RMK AO2 PK WND 32033/0452 SLP124 T01280100 PWINO $
EDW KEDW Edwards, US Edwards Air Force Base 24 50 9/0 29.79 KEDW 290455Z 26024KT 50SM BKN230 09/M00 A2979 RMK AO2A PK WND 26032/34 SLP083 T00941002
FSP LFVP Saint-Pierre, PM St Pierre Airport 24 6.21 3/1 29.35 LFVP 290500Z AUTO 30024KT CAVOK 03/01 Q0994
K20U 24 10 -10/-15 29.76 K20U 290515Z AUTO 29024KT 10SM -SN FEW017 OVC024 M10/M15 A2976 RMK AO2
KD55 24 10 -9/-9 29.49 KD55 290515Z AUTO 24024KT 10SM BKN015 BKN025 BKN042 M09/M09 A2949 RMK AO2
KD60 24 32 9 -12/-13 29.62 KD60 290515Z AUTO 28024G32KT 9SM BKN009 M12/M13 A2962 RMK AO2
KHEQ Holyoke, US Holyoke Airport 24 28 10 1/-8 29.56 KHEQ 290515Z AUTO 04024G28KT 10SM CLR 01/M08 A2956 RMK AO2
ENNE 24 8/5 30.09 ENNE 290520Z AUTO 15024KT 9999NDV BKN045/// 08/05 Q1019 W///S5
DIK KDIK Dickinson, US Dickinson Theodore Roosevelt Regional Airport 24 34 10 -10/-15 29.69 KDIK 290523Z AUTO 28024G34KT 10SM BKN025 M10/M15 A2969 RMK AO2 PK WND 28034/0519 T11001150
KCQC 23 35 10 2/-10 29.72 KCQC 290453Z AUTO 26023G35KT 10SM CLR 02/M11 A2972 RMK AO2 PK WND 26035/0422 SLP036 T00221106
IML KIML Imperial, US Imperial Municipal Airport 23 37 10 0/-10 29.54 KIML 290453Z AUTO 03023G37KT 10SM CLR 00/M11 A2954 RMK AO2 PK WND 04037/0434 SLP012 T00001106